createdAt,value
2023-02-11T00:04:56.606Z,99691.22
2023-02-11T00:10:02.890Z,99703.31
2023-02-11T00:15:07.267Z,99704.16
2023-02-11T00:20:11.474Z,99702.38
2023-02-11T00:25:16.059Z,99705.00
2023-02-11T00:30:19.414Z,99704.06
2023-02-11T00:35:22.642Z,99706.63
2023-02-11T00:40:27.274Z,99709.19
2023-02-11T00:45:31.008Z,99708.47
2023-02-11T00:50:34.595Z,99716.28
2023-02-11T00:55:39.178Z,99705.81
2023-02-11T01:00:42.582Z,99725.78
2023-02-11T01:05:45.716Z,99729.19
2023-02-11T01:10:57.561Z,99723.91
2023-02-11T01:16:01.275Z,99722.22
2023-02-11T01:21:05.242Z,99744.88
2023-02-11T01:26:09.877Z,99739.63
2023-02-11T01:31:13.393Z,99746.63
2023-02-11T01:36:16.602Z,99745.69
2023-02-11T01:41:21.438Z,99740.44
2023-02-11T01:46:35.217Z,99747.22
2023-02-11T01:51:43.116Z,99753.19
2023-02-11T01:57:09.971Z,99754.06
2023-02-11T02:02:16.980Z,99716.66
2023-02-11T02:07:29.689Z,99749.03
2023-02-11T02:12:34.613Z,99753.47
2023-02-11T02:17:47.586Z,99748.50
2023-02-11T02:23:08.324Z,99744.34
2023-02-11T02:28:36.808Z,99744.44
2023-02-11T02:33:51.382Z,99751.38
2023-02-11T02:39:00.517Z,99746.13
2023-02-11T02:44:04.103Z,99746.13
2023-02-11T02:49:14.602Z,99747.75
2023-02-11T02:54:50.482Z,99742.44
2023-02-11T03:00:08.955Z,99739.09
2023-02-11T03:05:19.891Z,99732.16
2023-02-11T03:10:28.466Z,99709.50
2023-02-11T03:15:36.300Z,99740.97
2023-02-11T03:20:43.348Z,99719.19
2023-02-11T03:25:52.958Z,99739.28
2023-02-11T03:31:04.131Z,99729.69
2023-02-11T03:36:15.417Z,99753.19
2023-02-11T03:41:23.954Z,99727.09
2023-02-11T03:46:32.551Z,99721.84
2023-02-11T03:51:39.465Z,99719.22
2023-02-11T03:56:48.405Z,99707.78
2023-02-11T04:01:51.656Z,99712.75
2023-02-11T04:06:57.836Z,99701.34
2023-02-11T04:12:01.136Z,99708.94
2023-02-11T04:17:05.097Z,99681.72
2023-02-11T04:22:09.964Z,99701.69
2023-02-11T04:27:13.122Z,99705.31
2023-02-11T04:32:16.506Z,99700.31
2023-02-11T04:37:21.396Z,99708.28
2023-02-11T04:42:25.003Z,99701.34
2023-02-11T04:47:28.542Z,99701.38
2023-02-11T04:52:33.171Z,99698.81
2023-02-11T04:57:36.503Z,99700.59
2023-02-11T05:02:39.894Z,99707.59
2023-02-11T05:07:44.685Z,99706.78
2023-02-11T05:12:49.602Z,99708.56
2023-02-11T05:17:52.860Z,99700.78
2023-02-11T05:22:57.430Z,99699.88
2023-02-11T05:28:00.660Z,99706.78
2023-02-11T05:33:03.844Z,99712.97
2023-02-11T05:38:08.507Z,99708.72
2023-02-11T05:43:11.886Z,99713.09
2023-02-11T05:48:15.403Z,99711.41
2023-02-11T05:53:20.294Z,99705.38
2023-02-11T05:58:23.584Z,99723.69
2023-02-11T06:03:26.912Z,99716.75
2023-02-11T06:08:31.807Z,99720.25
2023-02-11T06:13:35.353Z,99716.75
2023-02-11T06:18:38.512Z,99709.84
2023-02-11T06:23:43.680Z,99714.22
2023-02-11T06:28:47.235Z,99725.56
2023-02-11T06:33:50.719Z,99748.25
2023-02-11T06:38:55.366Z,99711.97
2023-02-11T06:43:58.744Z,99691.94
2023-02-11T06:49:02.175Z,99684.19
2023-02-11T06:54:08.516Z,99685.34
2023-02-11T06:59:16.340Z,99677.13
2023-02-11T07:04:19.602Z,99678.56
2023-02-11T07:09:24.323Z,99681.78
2023-02-11T07:14:27.917Z,99680.13
2023-02-11T07:19:31.269Z,99668.16
2023-02-11T07:24:35.879Z,99676.59
2023-02-11T07:29:39.045Z,99692.66
2023-02-11T07:34:42.351Z,99694.09
2023-02-11T07:39:47.171Z,99696.00
2023-02-11T07:44:50.864Z,99692.19
2023-02-11T07:49:56.541Z,99674.50
2023-02-11T07:55:04.696Z,99679.06
2023-02-11T08:00:08.926Z,99671.50
2023-02-11T08:05:12.323Z,99661.22
2023-02-11T08:10:17.146Z,99664.78
2023-02-11T08:15:20.879Z,99672.16
2023-02-11T08:20:24.298Z,99651.97
2023-02-11T08:25:28.947Z,99648.59
2023-02-11T08:30:32.381Z,99652.56
2023-02-11T08:35:37.115Z,99652.78
2023-02-11T08:40:41.815Z,99651.09
2023-02-11T08:45:45.984Z,99658.91
2023-02-11T08:50:49.515Z,99630.19
2023-02-11T08:55:57.639Z,99613.66
2023-02-11T09:01:01.086Z,99611.88
2023-02-11T09:06:07.001Z,99576.16
2023-02-11T09:11:12.579Z,99581.38
2023-02-11T09:16:19.546Z,99572.66
2023-02-11T09:21:22.840Z,99584.84
2023-02-11T09:26:29.092Z,99544.78
2023-02-11T09:31:34.348Z,99536.03
2023-02-11T09:36:39.593Z,99525.38
2023-02-11T09:42:21.141Z,99500.81
2023-02-11T09:47:30.176Z,99482.31
2023-02-11T09:52:41.422Z,99472.53
2023-02-11T09:57:44.738Z,99467.25
2023-02-11T10:03:06.316Z,99468.31
2023-02-11T10:08:17.694Z,99471.06
2023-02-11T10:13:42.682Z,99458.97
2023-02-11T10:19:08.800Z,99448.56
2023-02-11T10:24:15.770Z,99445.09
2023-02-11T10:29:38.009Z,99435.53
2023-02-11T10:34:43.544Z,99416.28
2023-02-11T10:39:46.905Z,99408.47
2023-02-11T10:44:58.780Z,99398.06
2023-02-11T10:50:22.333Z,99392.75
2023-02-11T10:55:27.960Z,99387.53
2023-02-11T11:00:38.069Z,99365.78
2023-02-11T11:05:50.730Z,99345.72
2023-02-11T11:11:05.229Z,99362.19
2023-02-11T11:16:19.672Z,99338.53
2023-02-11T11:21:32.640Z,99322.81
2023-02-11T11:26:43.310Z,99313.25
2023-02-11T11:31:52.901Z,99299.44
2023-02-11T11:36:58.498Z,99297.69
2023-02-11T11:42:05.447Z,99286.38
2023-02-11T11:47:21.763Z,99294.22
2023-02-11T11:52:38.848Z,99277.78
2023-02-11T11:57:42.512Z,99284.03
2023-02-11T12:03:08.653Z,99265.97
2023-02-11T12:08:21.438Z,99253.81
2023-02-11T12:13:36.097Z,99232.03
2023-02-11T12:19:01.618Z,99219.91
2023-02-11T12:24:44.997Z,99216.44
2023-02-11T12:30:02.327Z,99236.56
2023-02-11T12:35:26.347Z,99193.19
2023-02-11T12:40:39.583Z,99220.13
2023-02-11T12:46:02.708Z,99220.19
2023-02-11T12:51:15.710Z,99208.88
2023-02-11T12:56:25.422Z,99195.84
2023-02-11T13:01:31.993Z,99182.84
2023-02-11T13:06:40.141Z,99162.81
2023-02-11T13:11:52.152Z,99162.78
2023-02-11T13:16:57.157Z,99104.59
2023-02-11T13:22:12.950Z,99120.16
2023-02-11T13:27:34.062Z,99099.31
2023-02-11T13:33:06.734Z,99094.94
2023-02-11T13:38:21.615Z,99081.91
2023-02-11T13:43:28.991Z,99061.03
2023-02-11T13:48:37.545Z,99051.44
2023-02-11T13:53:50.484Z,99038.41
2023-02-11T13:58:55.176Z,99029.56
2023-02-11T14:04:38.733Z,99015.59
2023-02-11T14:09:42.288Z,99001.78
2023-02-11T14:15:15.929Z,98983.69
2023-02-11T14:20:38.444Z,98984.59
2023-02-11T14:25:44.102Z,98960.28
2023-02-11T14:31:01.114Z,98959.41
2023-02-11T14:36:16.833Z,98928.97
2023-02-11T14:41:24.347Z,98905.50
2023-02-11T14:46:33.009Z,98914.13
2023-02-11T14:51:39.845Z,98902.00
2023-02-11T14:56:44.632Z,98901.13
2023-02-11T15:01:54.714Z,98839.72
2023-02-11T15:07:01.586Z,98884.72
2023-02-11T15:12:05.711Z,98876.94
2023-02-11T15:17:10.736Z,98864.81
2023-02-11T15:22:21.469Z,98854.41
2023-02-11T15:27:25.923Z,98836.19
2023-02-11T15:32:30.602Z,98824.91
2023-02-11T15:37:34.306Z,98811.84
2023-02-11T15:42:50.893Z,98797.91
2023-02-11T15:48:00.539Z,98786.56
2023-02-11T15:53:18.524Z,98765.66
2023-02-11T15:58:24.043Z,98766.47
2023-02-11T16:03:33.118Z,98770.78
2023-02-11T16:08:37.759Z,98764.69
2023-02-11T16:13:47.084Z,98743.06
2023-02-11T16:19:04.327Z,98736.09
2023-02-11T16:24:19.027Z,98749.19
2023-02-11T16:29:27.414Z,98723.13
2023-02-11T16:34:32.129Z,98710.09
2023-02-11T16:39:35.540Z,98708.34
2023-02-11T16:44:39.298Z,98697.94
2023-02-11T16:49:44.396Z,98686.59
2023-02-11T16:54:47.579Z,98678.78
2023-02-11T16:59:51.408Z,98651.09
2023-02-11T17:04:57.503Z,98674.38
2023-02-11T17:10:01.033Z,98657.00
2023-02-11T17:15:07.234Z,98648.28
2023-02-11T17:20:15.735Z,98632.69
2023-02-11T17:25:19.558Z,98624.88
2023-02-11T17:30:23.412Z,98628.25
2023-02-11T17:35:28.129Z,98617.81
2023-02-11T17:40:31.540Z,98593.47
2023-02-11T17:45:36.198Z,98586.47
2023-02-11T17:50:40.910Z,98570.78
2023-02-11T17:55:44.205Z,98562.06
2023-02-11T18:00:47.588Z,98547.25
2023-02-11T18:05:52.618Z,98551.53
2023-02-11T18:10:56.626Z,98534.09
2023-02-11T18:16:04.639Z,98524.56
2023-02-11T18:21:09.862Z,98511.47
2023-02-11T18:26:14.138Z,98490.63
2023-02-11T18:31:18.542Z,98497.50
2023-02-11T18:36:24.174Z,98480.09
2023-02-11T18:41:28.261Z,98448.91
2023-02-11T18:46:32.027Z,98452.22
2023-02-11T18:51:36.725Z,98455.59
2023-02-11T18:56:39.928Z,98450.34
2023-02-11T19:01:47.034Z,98431.22
2023-02-11T19:06:51.983Z,98447.59
2023-02-11T19:12:00.184Z,98425.81
2023-02-11T19:17:05.616Z,98428.41
2023-02-11T19:22:11.035Z,98417.03
2023-02-11T19:27:14.226Z,98394.41
2023-02-11T19:32:17.388Z,98382.25
2023-02-11T19:37:22.093Z,98380.53
2023-02-11T19:42:27.604Z,98318.47
2023-02-11T19:47:31.408Z,98363.09
2023-02-11T19:52:39.270Z,98363.94
2023-02-11T19:57:42.532Z,98356.94
2023-02-11T20:02:47.219Z,98346.50
2023-02-11T20:07:51.882Z,98336.84
2023-02-11T20:12:55.085Z,98342.13
2023-02-11T20:17:58.350Z,98326.41
2023-02-11T20:23:02.998Z,98309.84
2023-02-11T20:28:06.563Z,98307.22
2023-02-11T20:33:09.971Z,98301.13
2023-02-11T20:38:14.829Z,98291.56
2023-02-11T20:43:18.085Z,98292.41
2023-02-11T20:48:21.349Z,98274.97
2023-02-11T20:53:25.971Z,98288.00
2023-02-11T20:58:29.183Z,98279.28
2023-02-11T21:03:32.450Z,98269.69
2023-02-11T21:08:37.726Z,98272.25
2023-02-11T21:13:42.788Z,98265.25
2023-02-11T21:18:46.143Z,98269.59
2023-02-11T21:23:51.038Z,98259.97
2023-02-11T21:28:55.288Z,98255.59
2023-02-11T21:33:59.646Z,98259.03
2023-02-11T21:39:06.053Z,98264.25
2023-02-11T21:44:09.541Z,98238.97
2023-02-11T21:49:12.841Z,98240.69
2023-02-11T21:54:18.845Z,98226.75
2023-02-11T21:59:22.042Z,98233.66
2023-02-11T22:04:25.375Z,98217.09
2023-02-11T22:09:30.490Z,98221.53
2023-02-11T22:14:33.664Z,98210.97
2023-02-11T22:19:37.010Z,98210.91
2023-02-11T22:24:41.874Z,98204.81
2023-02-11T22:29:45.375Z,98201.31
2023-02-11T22:34:50.391Z,98203.06
2023-02-11T22:39:56.971Z,98198.69
2023-02-11T22:45:00.213Z,98203.84
2023-02-11T22:50:03.376Z,98203.84
2023-02-11T22:55:08.623Z,98198.56
2023-02-11T23:00:13.321Z,98203.78
2023-02-11T23:05:16.913Z,98194.22
2023-02-11T23:10:21.812Z,98196.78
2023-02-11T23:15:25.206Z,98203.72
2023-02-11T23:20:28.514Z,98203.72
2023-02-11T23:25:34.843Z,98194.16
2023-02-11T23:30:38.373Z,98207.16
2023-02-11T23:35:41.646Z,98203.56
2023-02-11T23:40:46.385Z,98215.72
2023-02-11T23:45:52.216Z,98206.09
2023-02-11T23:50:55.698Z,98215.56
2023-02-11T23:56:00.364Z,98210.31
